< < Back
Terminal Aerodrome Forecast


Current Version              Previous Versions:   1  2  3  4  5  6  7  8  9  

Terminal Aerodrome Forecast

208
FTUS42 KJAX 041458 AAB
TAFGNV
TAF AMD
KGNV 041458Z 0415/0512 19007KT P6SM FEW020 SCT030
      TEMPO 0415/0416 5SM TSRA SCT020 BKN030CB
     FM041600 VRB05KT P6SM SCT025 BKN100
     FM041800 25009KT P6SM VCTS BKN035CB BKN250
     FM042000 24009KT P6SM SCT030=

Latest METAR

672
SAUS70 KWBC 050600 RRN
MTRGNV
METAR KGNV 050553Z AUTO 22003KT 8SM CLR 25/24 A3008 RMK AO2 SLP183
T02500239 10261 20244 50006 $


USA.gov is the U.S. government's official web portal to all federal, state and local government web resources and services.